Time;durP1;ratioP1;P1;durP2;ratioP2;P2;SDS_P1;SDS_P2;PMS_P1;PMS_P2;Temp;Humidity;BMP_temperature;BMP_pressure;BME280_temperature;BME280_humidity;BME280_pressure;Samples;Min_cycle;Max_cycle;Signal;HPM_P1;HPM_P2
2022/06/26 00:02:22;;;;;;;1.50;0.63;;;20.40;99.90;;;;;;5035555;28;20034;-78
2022/06/26 00:04:48;;;;;;;3.38;0.80;;;20.30;99.90;;;;;;5044749;28;20053;-77
2022/06/26 00:07:15;;;;;;;2.08;0.82;;;20.20;99.90;;;;;;5037425;28;20040;-78
2022/06/26 00:09:42;;;;;;;4.47;0.70;;;20.20;99.90;;;;;;5035990;28;20402;-78
2022/06/26 00:12:09;;;;;;;1.90;0.75;;;20.20;99.90;;;;;;5033663;28;20292;-78
2022/06/26 00:14:35;;;;;;;1.30;0.70;;;20.10;99.90;;;;;;5035353;28;20049;-78
2022/06/26 00:17:01;;;;;;;2.15;0.60;;;20.10;99.90;;;;;;5047447;28;20375;-78
2022/06/26 00:19:27;;;;;;;2.53;0.90;;;20.00;99.90;;;;;;5046679;28;20467;-78
2022/06/26 00:21:54;;;;;;;1.58;0.88;;;20.00;99.90;;;;;;5034079;28;20034;-78
2022/06/26 00:24:20;;;;;;;2.20;0.73;;;19.90;99.90;;;;;;5035062;28;20467;-78
2022/06/26 00:26:46;;;;;;;1.92;0.70;;;19.90;99.90;;;;;;5034704;28;20398;-78
2022/06/26 00:29:12;;;;;;;1.75;0.80;;;19.80;99.90;;;;;;5034264;28;20336;-77
2022/06/26 00:31:40;;;;;;;2.15;0.50;;;19.70;99.90;;;;;;5033904;28;20042;-77
2022/06/26 00:34:06;;;;;;;2.10;0.70;;;19.60;99.90;;;;;;5032111;28;20478;-77
2022/06/26 00:36:32;;;;;;;1.25;0.68;;;19.50;99.90;;;;;;5039986;28;20044;-77
2022/06/26 00:38:58;;;;;;;3.53;0.93;;;19.50;99.90;;;;;;5045409;28;20029;-78
2022/06/26 00:41:25;;;;;;;1.55;0.73;;;19.50;99.90;;;;;;5035297;28;20116;-78
2022/06/26 00:43:51;;;;;;;4.15;0.80;;;19.40;99.90;;;;;;5033064;28;20056;-77
2022/06/26 00:46:17;;;;;;;5.47;1.40;;;19.30;99.90;;;;;;5033916;28;20033;-79
2022/06/26 00:48:43;;;;;;;1.48;0.50;;;19.20;99.90;;;;;;5034788;28;20045;-78
2022/06/26 00:51:10;;;;;;;2.22;1.15;;;19.20;99.90;;;;;;5040109;28;20033;-78
2022/06/26 00:53:37;;;;;;;2.17;1.00;;;19.10;99.90;;;;;;5054635;28;20040;-79
2022/06/26 00:56:03;;;;;;;4.32;1.13;;;19.10;99.90;;;;;;5042337;28;20395;-79
2022/06/26 00:58:30;;;;;;;2.45;1.00;;;19.10;99.90;;;;;;5054127;28;20037;-78
2022/06/26 01:00:56;;;;;;;3.33;1.08;;;19.10;99.90;;;;;;5048846;28;20466;-79
2022/06/26 01:03:22;;;;;;;2.53;0.90;;;19.00;99.90;;;;;;5033853;28;20046;-79
2022/06/26 01:05:49;;;;;;;3.05;1.17;;;19.10;99.90;;;;;;5041145;28;20033;-79
2022/06/26 01:08:15;;;;;;;4.45;1.08;;;19.10;99.90;;;;;;5044262;28;20040;-78
2022/06/26 01:10:42;;;;;;;2.05;1.10;;;19.10;99.90;;;;;;5059280;28;20049;-78
2022/06/26 01:13:09;;;;;;;2.20;0.70;;;19.10;99.90;;;;;;5048371;28;20509;-79
2022/06/26 01:15:36;;;;;;;2.38;1.10;;;19.10;99.90;;;;;;5033119;28;20045;-79
2022/06/26 01:18:04;;;;;;;4.78;1.00;;;19.10;99.90;;;;;;5039344;28;20037;-78
2022/06/26 01:20:30;;;;;;;2.10;1.05;;;19.10;99.90;;;;;;5049545;28;20375;-79
2022/06/26 01:23:05;;;;;;;3.13;1.63;;;19.10;99.90;;;;;;5048090;28;20398;-78
2022/06/26 01:25:49;;;;;;;3.13;1.40;;;19.10;99.90;;;;;;5052206;28;20041;-79
2022/06/26 01:28:16;;;;;;;2.80;1.33;;;19.00;99.90;;;;;;5033986;28;20052;-79
2022/06/26 01:30:44;;;;;;;2.05;1.17;;;19.00;99.90;;;;;;5033287;28;20041;-78
2022/06/26 01:33:11;;;;;;;3.30;0.80;;;19.00;99.90;;;;;;5041391;28;20494;-79
2022/06/26 01:35:37;;;;;;;3.60;1.30;;;19.00;99.90;;;;;;5037546;28;20040;-79
2022/06/26 01:38:14;;;;;;;1.67;1.00;;;19.00;99.90;;;;;;5039873;28;20041;-78
2022/06/26 01:40:41;;;;;;;6.20;1.80;;;19.10;99.90;;;;;;5033706;28;20038;-78
2022/06/26 01:43:11;;;;;;;3.08;1.63;;;19.20;99.90;;;;;;5037026;28;20487;-78
2022/06/26 01:45:46;;;;;;;2.33;0.90;;;19.30;99.90;;;;;;5033192;28;20033;-78
2022/06/26 01:48:14;;;;;;;2.83;1.27;;;19.30;99.90;;;;;;5036230;28;20048;-79
2022/06/26 01:50:41;;;;;;;4.13;1.00;;;19.30;99.90;;;;;;5056434;28;20232;-78
2022/06/26 01:53:09;;;;;;;2.42;1.40;;;19.20;99.90;;;;;;5030363;28;20041;-76
2022/06/26 01:55:38;;;;;;;1.63;1.08;;;19.20;99.90;;;;;;5032056;28;20037;-79
2022/06/26 01:58:08;;;;;;;3.58;1.20;;;19.20;99.90;;;;;;5032295;28;20041;-79
2022/06/26 02:00:39;;;;;;;3.30;1.20;;;19.10;99.90;;;;;;5035854;28;20048;-77
2022/06/26 02:03:05;;;;;;;4.07;1.30;;;19.00;99.90;;;;;;5044358;28;20041;-78
2022/06/26 02:05:32;;;;;;;3.80;1.15;;;18.90;99.90;;;;;;5036827;28;20044;-77
2022/06/26 02:07:59;;;;;;;2.10;1.10;;;18.90;99.90;;;;;;5041451;28;20041;-77
2022/06/26 02:15:58;;;;;;;2.97;0.98;;;18.80;99.90;;;;;;5033054;28;20033;-77
2022/06/26 02:18:26;;;;;;;3.15;1.40;;;18.80;99.90;;;;;;5032841;28;20029;-77
2022/06/26 02:20:53;;;;;;;5.10;1.10;;;18.70;99.90;;;;;;5032106;28;20045;-77
2022/06/26 02:23:20;;;;;;;1.88;1.15;;;18.70;99.90;;;;;;5031802;28;20380;-77
2022/06/26 02:25:46;;;;;;;3.47;1.50;;;18.60;99.90;;;;;;5031440;28;20037;-76
2022/06/26 02:28:13;;;;;;;2.97;1.00;;;18.60;99.90;;;;;;5032640;28;20056;-77
2022/06/26 02:30:39;;;;;;;3.15;1.05;;;18.50;99.90;;;;;;5032430;28;20045;-78
2022/06/26 02:33:06;;;;;;;2.83;1.63;;;18.40;99.90;;;;;;5030674;28;20052;-80
2022/06/26 02:35:32;;;;;;;3.22;1.40;;;18.20;99.90;;;;;;5051840;28;20049;-79
2022/06/26 02:37:59;;;;;;;2.20;1.30;;;18.20;99.90;;;;;;5048059;28;20410;-79
2022/06/26 02:40:28;;;;;;;3.50;1.10;;;18.20;99.90;;;;;;5032750;28;20053;-79
2022/06/26 02:42:55;;;;;;;3.50;1.27;;;18.20;99.90;;;;;;5053285;28;20060;-79
2022/06/26 02:45:22;;;;;;;5.47;1.52;;;18.20;99.90;;;;;;5031680;28;20474;-80
2022/06/26 02:47:49;;;;;;;3.25;1.15;;;18.20;99.90;;;;;;5034266;28;20446;-79
2022/06/26 02:50:16;;;;;;;2.60;1.20;;;18.20;99.90;;;;;;5047967;28;20495;-79
2022/06/26 02:52:44;;;;;;;3.20;1.20;;;18.20;99.90;;;;;;5048988;28;20049;-79
2022/06/26 02:55:12;;;;;;;2.75;1.60;;;18.30;99.90;;;;;;5048719;28;20037;-79
2022/06/26 02:57:41;;;;;;;2.33;1.20;;;18.30;99.90;;;;;;5040154;28;20339;-79
2022/06/26 03:00:10;;;;;;;2.90;2.03;;;18.30;99.90;;;;;;5034261;28;20044;-80
2022/06/26 03:02:40;;;;;;;3.63;1.95;;;18.30;99.90;;;;;;5049246;28;20462;-79
2022/06/26 03:05:09;;;;;;;2.92;1.52;;;18.30;99.90;;;;;;5049958;28;20481;-79
2022/06/26 03:07:36;;;;;;;3.47;1.25;;;18.30;99.90;;;;;;5032439;28;20461;-79
2022/06/26 03:10:04;;;;;;;1.98;1.20;;;18.30;99.90;;;;;;5035497;28;20041;-78
2022/06/26 03:12:31;;;;;;;8.18;2.10;;;18.30;99.90;;;;;;5029687;28;20052;-78
2022/06/26 03:14:57;;;;;;;2.42;1.92;;;18.40;99.90;;;;;;5043423;28;20037;-79
2022/06/26 03:17:25;;;;;;;2.92;1.65;;;18.40;99.90;;;;;;5050576;28;20045;-79
2022/06/26 03:19:51;;;;;;;2.88;1.73;;;18.30;99.90;;;;;;5046132;28;20099;-79
2022/06/26 03:22:17;;;;;;;4.70;1.70;;;18.20;99.90;;;;;;5035336;28;20398;-78
2022/06/26 03:24:45;;;;;;;5.32;1.73;;;18.30;99.90;;;;;;5042929;28;20060;-78
2022/06/26 03:27:11;;;;;;;1.95;1.45;;;18.20;99.90;;;;;;5035601;28;20049;-78
2022/06/26 03:29:37;;;;;;;1.60;1.02;;;18.10;99.90;;;;;;5044158;28;20525;-78
2022/06/26 03:32:07;;;;;;;2.45;1.33;;;18.00;99.90;;;;;;5051378;28;20052;-77
2022/06/26 03:34:36;;;;;;;3.63;1.27;;;17.90;99.90;;;;;;5040004;28;20399;-77
2022/06/26 03:37:03;;;;;;;2.22;1.50;;;17.90;99.90;;;;;;5036419;28;20030;-77
2022/06/26 03:39:29;;;;;;;2.17;1.33;;;17.90;99.90;;;;;;5041136;28;20041;-77
2022/06/26 03:42:00;;;;;;;2.60;1.42;;;17.90;99.90;;;;;;5051127;28;20045;-77
2022/06/26 03:44:34;;;;;;;2.83;1.70;;;18.00;99.90;;;;;;5040126;28;20426;-77
2022/06/26 03:47:00;;;;;;;2.42;1.52;;;18.20;99.90;;;;;;5036478;28;20033;-77
2022/06/26 03:49:27;;;;;;;3.22;1.40;;;18.20;99.90;;;;;;5034289;28;20428;-76
2022/06/26 03:51:59;;;;;;;6.20;2.03;;;18.20;99.90;;;;;;5062229;28;20041;-77
2022/06/26 03:54:25;;;;;;;5.47;1.52;;;18.20;99.90;;;;;;5033066;28;20483;-76
2022/06/26 03:56:52;;;;;;;4.03;2.05;;;18.20;99.90;;;;;;5034414;28;20045;-77
2022/06/26 03:59:18;;;;;;;2.67;1.65;;;18.10;99.90;;;;;;5061678;28;20056;-76
2022/06/26 04:01:45;;;;;;;5.18;1.38;;;18.10;99.90;;;;;;5058884;28;20045;-76
2022/06/26 04:04:11;;;;;;;2.42;1.52;;;18.10;99.90;;;;;;5047672;28;20060;-78
2022/06/26 04:06:39;;;;;;;4.25;1.17;;;18.00;99.90;;;;;;5038916;28;20475;-78
2022/06/26 04:09:16;;;;;;;3.22;1.30;;;17.90;99.90;;;;;;5064392;28;20045;-77
2022/06/26 04:11:43;;;;;;;2.88;1.73;;;17.90;99.90;;;;;;5046583;28;20270;-77
2022/06/26 04:14:09;;;;;;;4.82;1.63;;;17.80;99.90;;;;;;5057104;28;20049;-79
2022/06/26 04:16:36;;;;;;;2.42;1.77;;;17.80;99.90;;;;;;5039209;28;20401;-79
2022/06/26 04:19:03;;;;;;;4.88;2.25;;;17.80;99.90;;;;;;5045925;28;20422;-79
2022/06/26 04:21:30;;;;;;;3.40;1.63;;;17.90;99.90;;;;;;5034962;28;20033;-78
2022/06/26 04:23:56;;;;;;;3.15;1.63;;;18.00;99.90;;;;;;5049835;28;20490;-79
2022/06/26 04:26:23;;;;;;;2.05;1.45;;;18.00;99.90;;;;;;5033920;28;20493;-77
2022/06/26 04:28:50;;;;;;;2.90;1.60;;;18.10;99.90;;;;;;5037097;28;20041;-77
2022/06/26 04:31:16;;;;;;;6.40;1.70;;;18.10;99.90;;;;;;5067169;28;20041;-79
2022/06/26 04:33:47;;;;;;;3.25;1.60;;;18.00;99.90;;;;;;5038892;28;20041;-79
2022/06/26 04:36:14;;;;;;;3.58;1.90;;;18.00;99.90;;;;;;5039754;28;20471;-79
2022/06/26 04:38:40;;;;;;;2.97;1.50;;;18.00;99.90;;;;;;5034827;28;20045;-79
2022/06/26 04:43:52;;;;;;;2.15;1.30;;;18.80;99.90;;;;;;5050801;28;20052;-78
2022/06/26 04:46:20;;;;;;;3.20;1.10;;;20.70;99.90;;;;;;5032894;28;20042;-78
2022/06/26 04:48:46;;;;;;;2.15;1.38;;;21.90;99.90;;;;;;5055686;28;20379;-77
2022/06/26 04:51:15;;;;;;;3.63;1.20;;;23.20;99.90;;;;;;5033694;28;20501;-78
2022/06/26 04:53:41;;;;;;;2.95;1.20;;;24.40;98.40;;;;;;5048026;28;20059;-78
2022/06/26 04:56:07;;;;;;;2.85;1.42;;;24.40;97.30;;;;;;5033696;28;20041;-78
2022/06/26 04:58:44;;;;;;;5.40;1.25;;;24.50;96.20;;;;;;5040922;28;20252;-78
2022/06/26 05:01:10;;;;;;;1.77;0.80;;;24.90;95.60;;;;;;5040360;28;20048;-79
2022/06/26 05:03:55;;;;;;;2.92;1.20;;;25.00;94.70;;;;;;5046019;28;20053;-78
2022/06/26 05:06:35;;;;;;;2.63;1.17;;;24.40;94.70;;;;;;5032758;28;20038;-79
2022/06/26 05:09:14;;;;;;;1.48;0.75;;;23.90;95.90;;;;;;5049487;28;20033;-77
2022/06/26 05:11:42;;;;;;;2.42;1.17;;;24.50;95.90;;;;;;5043149;28;20037;-77
2022/06/26 05:14:09;;;;;;;2.55;0.90;;;25.60;93.90;;;;;;5038244;28;20064;-77
2022/06/26 05:16:50;;;;;;;4.78;0.95;;;25.20;93.80;;;;;;5044394;28;20034;-78
2022/06/26 05:19:20;;;;;;;4.43;0.80;;;26.10;92.30;;;;;;5065073;28;20047;-78
2022/06/26 05:21:47;;;;;;;2.15;0.95;;;26.50;91.20;;;;;;5048964;28;20045;-78
2022/06/26 05:24:13;;;;;;;3.10;1.08;;;26.40;90.70;;;;;;5050869;28;20041;-79
2022/06/26 05:26:45;;;;;;;0.82;0.60;;;26.00;90.70;;;;;;5039480;28;20108;-78
2022/06/26 05:29:11;;;;;;;1.85;1.08;;;26.50;89.70;;;;;;5050459;28;20034;-78
2022/06/26 05:31:37;;;;;;;3.05;0.82;;;25.90;91.10;;;;;;5033076;28;20454;-79
2022/06/26 05:34:04;;;;;;;1.88;0.90;;;25.40;91.20;;;;;;5055281;28;20049;-78
2022/06/26 05:36:31;;;;;;;1.33;0.80;;;24.80;92.80;;;;;;5032949;28;20033;-78
2022/06/26 05:38:58;;;;;;;1.50;0.85;;;24.50;94.10;;;;;;5032162;28;20046;-79
2022/06/26 05:41:28;;;;;;;;;;;24.60;94.00;;;;;;5045655;28;20041;-78
2022/06/26 05:43:54;;;;;;;2.25;0.90;;;24.80;92.00;;;;;;5033003;28;19917;-78
2022/06/26 05:46:20;;;;;;;1.45;0.90;;;24.70;92.00;;;;;;5034298;28;20041;-79
2022/06/26 05:49:00;;;;;;;2.75;0.82;;;24.60;92.60;;;;;;5034249;28;20037;-78
2022/06/26 05:51:58;;;;;;;3.90;0.70;;;24.80;92.20;;;;;;5022163;28;20050;-78
2022/06/26 05:54:28;;;;;;;2.90;0.93;;;25.70;90.90;;;;;;5038241;28;20041;-79
2022/06/26 05:57:17;;;;;;;1.85;1.20;;;24.10;93.10;;;;;;5050181;28;20048;-79
2022/06/26 06:00:07;;;;;;;2.20;1.02;;;23.80;94.90;;;;;;5033405;28;20041;-79
2022/06/26 06:02:52;;;;;;;2.17;1.08;;;25.30;92.50;;;;;;5037567;28;20064;-78
2022/06/26 06:05:21;;;;;;;2.85;1.38;;;26.90;86.00;;;;;;5036053;28;20041;-78
2022/06/26 06:07:48;;;;;;;2.15;1.02;;;27.40;83.90;;;;;;5039493;28;20038;-78
2022/06/26 06:10:18;;;;;;;1.70;0.90;;;27.10;81.40;;;;;;5032595;28;20060;-78
2022/06/26 06:12:45;;;;;;;3.45;0.90;;;27.10;80.50;;;;;;5055291;28;20049;-79
2022/06/26 06:15:12;;;;;;;1.58;0.85;;;26.40;79.40;;;;;;5047866;28;20042;-78
2022/06/26 06:17:44;;;;;;;1.38;0.65;;;26.00;84.00;;;;;;5043165;28;20037;-79
2022/06/26 06:20:11;;;;;;;1.13;0.60;;;24.90;86.80;;;;;;5036831;28;20056;-79
2022/06/26 06:22:43;;;;;;;2.10;0.65;;;24.30;90.60;;;;;;5053128;28;20045;-78
2022/06/26 06:25:11;;;;;;;1.00;0.63;;;24.10;91.30;;;;;;5037954;28;20040;-78
2022/06/26 06:27:38;;;;;;;157.98;37.92;;;23.70;93.10;;;;;;5042085;28;20045;-78
2022/06/26 06:30:09;;;;;;;2.05;0.70;;;24.50;93.60;;;;;;5043546;28;20402;-79
2022/06/26 06:32:36;;;;;;;2.17;0.65;;;25.40;91.60;;;;;;5048329;28;20048;-79
2022/06/26 06:35:06;;;;;;;4.10;1.15;;;25.60;89.20;;;;;;5038008;28;20046;-78
2022/06/26 06:37:36;;;;;;;1.45;0.60;;;25.90;88.30;;;;;;5048724;28;20041;-79
2022/06/26 06:40:02;;;;;;;1.70;0.70;;;25.90;84.40;;;;;;5035220;28;20401;-78
2022/06/26 06:42:35;;;;;;;2.92;0.88;;;25.70;85.20;;;;;;5035838;28;20057;-79
2022/06/26 06:45:11;;;;;;;1.13;0.40;;;25.40;82.10;;;;;;5031461;28;20068;-78
2022/06/26 06:47:55;;;;;;;2.35;1.65;;;25.70;85.00;;;;;;5032918;28;20048;-78
2022/06/26 06:50:44;;;;;;;2.20;0.83;;;25.70;81.30;;;;;;5049467;28;20398;-78
2022/06/26 06:53:10;;;;;;;2.00;0.50;;;25.10;83.20;;;;;;5030791;28;20284;-78
2022/06/26 06:55:37;;;;;;;5.20;0.60;;;24.80;83.10;;;;;;5032496;28;20033;-77
2022/06/26 06:58:03;;;;;;;39.10;3.70;;;23.90;85.00;;;;;;5032588;28;20510;-78
2022/06/26 07:00:30;;;;;;;64.72;5.10;;;24.20;86.70;;;;;;5032223;28;20029;-78
2022/06/26 07:03:01;;;;;;;0.85;0.65;;;24.60;84.70;;;;;;5032158;28;20045;-78
2022/06/26 07:05:28;;;;;;;0.95;0.60;;;24.80;83.70;;;;;;5036695;28;20061;-78
2022/06/26 07:07:54;;;;;;;2.90;2.65;;;24.80;86.70;;;;;;5039598;28;20041;-79
2022/06/26 07:10:20;;;;;;;13.40;6.28;;;25.80;79.20;;;;;;5041159;28;20056;-77
2022/06/26 07:12:54;;;;;;;2.65;1.40;;;26.10;77.70;;;;;;5042487;28;20049;-78
2022/06/26 07:15:20;;;;;;;52.63;6.57;;;25.60;81.50;;;;;;5039986;28;20037;-76
2022/06/26 07:17:47;;;;;;;1.40;0.45;;;25.20;80.20;;;;;;5046608;28;20044;-77
2022/06/26 07:20:14;;;;;;;523.88;257.38;;;24.40;82.00;;;;;;5045595;28;20044;-77
2022/06/26 07:22:41;;;;;;;355.52;342.73;;;24.60;84.20;;;;;;5042326;28;20045;-77
2022/06/26 07:25:21;;;;;;;262.15;253.15;;;25.10;83.30;;;;;;5042294;28;20050;-78
2022/06/26 07:27:55;;;;;;;3.17;2.70;;;24.60;79.90;;;;;;5056428;28;20056;-77
2022/06/26 07:30:21;;;;;;;1.20;0.60;;;25.20;79.70;;;;;;5039713;28;20049;-76
2022/06/26 07:34:12;;;;;;;0.88;0.68;;;25.00;79.30;;;;;;5036301;28;20045;-75
2022/06/26 07:35:56;;;;;;;2.35;2.25;;;24.60;80.30;;;;;;5049368;28;20050;-77
2022/06/26 07:38:22;;;;;;;33.40;32.10;;;24.40;78.60;;;;;;5043062;28;20045;-77
2022/06/26 07:40:49;;;;;;;75.20;72.38;;;24.60;82.90;;;;;;5040376;28;20038;-76
2022/06/26 07:43:16;;;;;;;827.65;769.40;;;25.30;83.40;;;;;;5041201;28;20049;-76
2022/06/26 07:45:42;;;;;;;1.23;0.50;;;25.80;79.00;;;;;;5030450;28;20475;-76
2022/06/26 07:48:11;;;;;;;1.20;0.63;;;25.50;78.40;;;;;;5047312;28;20467;-76
2022/06/26 07:50:40;;;;;;;7.82;0.90;;;25.20;79.70;;;;;;5037671;28;20041;-77
2022/06/26 07:53:06;;;;;;;4.10;3.90;;;24.80;81.10;;;;;;5043951;28;20509;-76
2022/06/26 07:55:32;;;;;;;0.30;0.30;;;24.60;83.10;;;;;;5031723;28;20030;-75
2022/06/26 07:57:58;;;;;;;1.48;0.50;;;24.90;81.00;;;;;;5034853;28;20021;-76
2022/06/26 08:00:25;;;;;;;0.88;0.40;;;24.70;81.50;;;;;;5043488;28;20032;-78
2022/06/26 08:02:51;;;;;;;142.18;11.13;;;25.00;81.60;;;;;;5035121;28;20386;-77
2022/06/26 08:05:18;;;;;;;339.75;78.75;;;26.30;82.10;;;;;;5039901;28;20052;-77
2022/06/26 08:07:44;;;;;;;0.73;0.70;;;26.30;78.20;;;;;;5049278;28;20382;-76
2022/06/26 08:10:12;;;;;;;0.40;0.30;;;25.80;77.30;;;;;;5048825;28;20025;-77
2022/06/26 08:12:38;;;;;;;51.45;30.67;;;25.20;79.90;;;;;;5052916;28;20029;-77
2022/06/26 08:15:05;;;;;;;502.02;253.07;;;25.40;79.40;;;;;;5041520;28;20037;-76
2022/06/26 08:17:31;;;;;;;0.77;0.40;;;25.70;78.00;;;;;;5039070;28;20029;-74
2022/06/26 08:19:57;;;;;;;1.40;0.40;;;26.00;76.90;;;;;;5037970;28;20390;-74
2022/06/26 08:22:23;;;;;;;211.35;42.60;;;26.70;75.60;;;;;;5035518;28;20064;-74
2022/06/26 08:24:50;;;;;;;0.70;0.30;;;26.50;78.30;;;;;;5041852;28;20039;-74
2022/06/26 08:27:16;;;;;;;0.77;0.40;;;26.80;76.50;;;;;;5035238;28;20121;-74
2022/06/26 08:29:42;;;;;;;260.42;26.27;;;26.60;73.90;;;;;;5050424;28;20042;-74
2022/06/26 08:32:08;;;;;;;1.88;0.85;;;26.00;75.40;;;;;;5036661;28;21580;-74
2022/06/26 08:34:34;;;;;;;1.33;0.65;;;25.30;77.50;;;;;;5035381;28;20048;-74
2022/06/26 08:37:01;;;;;;;2.30;0.52;;;25.70;80.10;;;;;;5039368;28;20045;-74
2022/06/26 08:39:27;;;;;;;0.47;0.30;;;25.90;75.70;;;;;;5036954;28;20364;-75
2022/06/26 08:41:54;;;;;;;2.35;0.68;;;25.40;75.80;;;;;;5044426;28;20848;-74
2022/06/26 08:44:24;;;;;;;0.70;0.40;;;25.30;75.70;;;;;;5035088;28;20052;-74
2022/06/26 08:46:53;;;;;;;1.10;0.55;;;25.40;78.90;;;;;;5052830;28;20025;-74
2022/06/26 08:49:20;;;;;;;3.00;0.37;;;26.40;74.30;;;;;;5050562;28;20417;-74
2022/06/26 08:51:48;;;;;;;1.02;0.50;;;27.40;70.70;;;;;;5038691;28;20041;-75
2022/06/26 08:54:16;;;;;;;1.15;0.40;;;27.80;69.60;;;;;;5042520;28;20026;-74
2022/06/26 08:56:44;;;;;;;1.63;0.38;;;27.40;68.60;;;;;;5033189;28;20034;-73
2022/06/26 08:59:15;;;;;;;882.78;398.92;;;26.00;72.40;;;;;;5038953;28;20029;-75
2022/06/26 09:01:42;;;;;;;25.08;1.80;;;26.60;76.60;;;;;;5044920;28;20487;-74
2022/06/26 09:04:09;;;;;;;442.70;57.10;;;27.40;70.50;;;;;;5035691;28;20402;-73
2022/06/26 09:06:37;;;;;;;0.85;0.40;;;26.90;70.20;;;;;;5034135;28;20486;-74
2022/06/26 09:09:24;;;;;;;0.50;0.30;;;26.40;71.90;;;;;;5047578;28;20474;-74
2022/06/26 09:11:52;;;;;;;0.77;0.30;;;26.10;73.00;;;;;;5050411;28;20044;-74
2022/06/26 09:14:20;;;;;;;1.20;0.50;;;26.20;74.00;;;;;;5037265;28;20045;-73
2022/06/26 09:16:49;;;;;;;1.65;0.43;;;26.20;71.70;;;;;;5035604;28;20053;-74
2022/06/26 09:19:19;;;;;;;1.30;0.60;;;27.10;70.20;;;;;;5037373;28;20025;-74
2022/06/26 09:21:46;;;;;;;0.65;0.52;;;26.80;72.40;;;;;;5032843;28;20041;-75
2022/06/26 09:24:15;;;;;;;1.73;0.60;;;26.60;70.10;;;;;;5046031;28;20046;-74
2022/06/26 09:26:43;;;;;;;1.58;0.40;;;27.00;74.60;;;;;;5050427;28;20036;-73
2022/06/26 09:29:15;;;;;;;0.57;0.40;;;28.00;69.30;;;;;;5039599;28;20025;-74
2022/06/26 09:31:42;;;;;;;1.05;0.45;;;27.90;73.00;;;;;;5044098;28;20045;-74
2022/06/26 09:34:20;;;;;;;0.65;0.30;;;27.60;73.50;;;;;;5037733;28;20033;-74
2022/06/26 09:37:03;;;;;;;1.10;0.40;;;28.00;70.50;;;;;;5039559;28;20029;-74
2022/06/26 09:39:30;;;;;;;0.93;0.45;;;28.30;66.30;;;;;;5053386;28;20056;-74
2022/06/26 09:42:02;;;;;;;0.95;0.50;;;27.70;66.00;;;;;;5043272;28;20040;-74
2022/06/26 09:44:29;;;;;;;0.90;0.35;;;27.00;70.70;;;;;;5045163;28;20076;-74
2022/06/26 09:46:55;;;;;;;2.17;0.65;;;26.60;71.10;;;;;;5044883;28;20036;-73
2022/06/26 09:49:21;;;;;;;0.63;0.40;;;26.50;71.90;;;;;;5045302;28;20041;-74
2022/06/26 09:51:48;;;;;;;1.17;0.50;;;26.80;70.10;;;;;;5044340;28;20040;-74
2022/06/26 09:54:14;;;;;;;1.10;0.50;;;27.00;68.90;;;;;;5037491;28;20034;-75
2022/06/26 09:56:40;;;;;;;1.58;0.32;;;27.40;68.60;;;;;;5041413;28;20025;-74
2022/06/26 09:59:07;;;;;;;0.90;0.50;;;27.40;67.80;;;;;;5037088;28;20044;-74
2022/06/26 10:07:07;;;;;;;1.80;0.70;;;26.60;68.10;;;;;;5040712;28;20045;-74
2022/06/26 10:09:35;;;;;;;2.78;0.52;;;26.50;69.40;;;;;;5038743;28;20509;-77
2022/06/26 10:12:03;;;;;;;1.25;0.63;;;26.50;69.80;;;;;;5040117;28;20501;-76
2022/06/26 10:14:35;;;;;;;0.45;0.40;;;26.40;71.20;;;;;;5033211;28;20493;-74
2022/06/26 10:17:26;;;;;;;0.40;0.30;;;27.10;67.80;;;;;;5040471;28;20398;-74
2022/06/26 10:19:57;;;;;;;0.35;0.30;;;27.40;68.80;;;;;;5040107;28;20028;-75
2022/06/26 10:22:23;;;;;;;1.90;0.40;;;27.60;65.60;;;;;;5045498;28;20390;-74
2022/06/26 10:24:58;;;;;;;1.48;0.40;;;27.30;66.50;;;;;;5034960;28;20037;-73
2022/06/26 10:27:33;;;;;;;1.60;0.50;;;26.40;69.00;;;;;;5031293;28;20037;-73
2022/06/26 10:30:11;;;;;;;0.73;0.52;;;26.30;68.20;;;;;;5034195;28;20041;-74
2022/06/26 10:32:38;;;;;;;1.15;0.50;;;26.00;70.80;;;;;;5042521;28;20032;-73
2022/06/26 10:35:05;;;;;;;1.02;0.50;;;26.00;72.30;;;;;;5045371;28;20029;-74
2022/06/26 10:37:46;;;;;;;1.98;0.40;;;26.60;69.50;;;;;;5047047;28;20029;-77
2022/06/26 10:43:11;;;;;;;1.08;0.63;;;26.90;66.00;;;;;;5046407;28;20041;-74
2022/06/26 10:45:38;;;;;;;1.52;0.77;;;26.70;68.90;;;;;;5047516;28;20036;-73
2022/06/26 10:48:07;;;;;;;1.42;0.52;;;26.40;69.10;;;;;;5040962;28;20033;-73
2022/06/26 10:50:39;;;;;;;1.38;0.68;;;26.30;67.10;;;;;;5033150;28;20045;-77
2022/06/26 10:53:38;;;;;;;1.17;0.63;;;26.30;67.50;;;;;;5048364;28;20036;-73
2022/06/26 10:56:06;;;;;;;1.45;0.60;;;26.70;66.00;;;;;;5034031;28;20038;-75
2022/06/26 10:58:45;;;;;;;2.58;0.70;;;26.50;67.80;;;;;;5032139;28;20503;-78
2022/06/26 11:01:13;;;;;;;1.03;0.40;;;27.20;65.70;;;;;;5046457;28;20033;-73
2022/06/26 11:03:40;;;;;;;1.02;0.50;;;27.70;65.30;;;;;;5048827;28;20494;-75
2022/06/26 11:06:11;;;;;;;1.27;0.50;;;27.50;63.40;;;;;;5049079;28;20048;-75
2022/06/26 11:08:49;;;;;;;1.30;0.60;;;26.90;66.10;;;;;;5038542;28;20040;-75
2022/06/26 11:11:22;;;;;;;1.17;0.43;;;27.30;66.70;;;;;;5036233;28;20017;-78
2022/06/26 11:14:09;;;;;;;1.33;0.65;;;27.90;66.20;;;;;;5045692;28;20060;-74
2022/06/26 11:16:43;;;;;;;1.48;0.60;;;28.10;62.40;;;;;;5033289;28;20033;-76
2022/06/26 11:20:46;;;;;;;0.80;0.47;;;27.90;64.20;;;;;;5039927;28;20032;-74
2022/06/26 11:22:18;;;;;;;1.85;0.40;;;27.60;62.80;;;;;;5051582;28;20043;-75
2022/06/26 11:24:49;;;;;;;0.98;0.50;;;27.30;63.70;;;;;;5047717;28;20044;-74
2022/06/26 11:27:15;;;;;;;1.52;0.70;;;27.20;62.50;;;;;;5035078;28;20132;-74
2022/06/26 11:29:41;;;;;;;1.85;0.50;;;27.00;64.80;;;;;;5043660;28;20025;-75
2022/06/26 11:32:08;;;;;;;1.17;0.75;;;26.80;63.20;;;;;;5032068;28;20048;-74
2022/06/26 11:34:35;;;;;;;1.25;0.47;;;26.80;64.00;;;;;;5032634;28;20034;-79
2022/06/26 11:37:02;;;;;;;0.85;0.50;;;26.60;65.00;;;;;;5034319;28;20034;-77
2022/06/26 11:39:42;;;;;;;1.40;0.70;;;26.60;68.20;;;;;;5053129;28;20033;-74
2022/06/26 11:42:21;;;;;;;162.80;98.22;;;26.80;66.30;;;;;;5035060;28;20041;-75
2022/06/26 11:44:52;;;;;;;1.20;0.60;;;26.90;66.90;;;;;;5036176;28;20058;-74
2022/06/26 11:47:20;;;;;;;2.35;0.73;;;27.10;64.80;;;;;;5045751;28;20295;-74
2022/06/26 11:49:47;;;;;;;1.00;0.60;;;27.20;64.40;;;;;;5054703;28;20033;-74
2022/06/26 11:52:14;;;;;;;1.30;0.73;;;27.30;65.00;;;;;;5047945;28;20033;-74
2022/06/26 11:54:40;;;;;;;1.10;0.80;;;27.60;63.80;;;;;;5041459;28;20029;-75
2022/06/26 11:57:11;;;;;;;1.90;0.60;;;27.10;64.00;;;;;;5035836;28;20044;-74
2022/06/26 11:59:46;;;;;;;0.95;0.52;;;27.00;64.20;;;;;;5035668;28;20052;-74
2022/06/26 12:02:24;;;;;;;1.13;0.70;;;27.00;65.90;;;;;;5046704;28;20033;-74
2022/06/26 12:04:59;;;;;;;2.30;1.00;;;27.50;65.30;;;;;;5038864;28;20042;-74
2022/06/26 12:07:25;;;;;;;0.88;0.65;;;27.60;65.10;;;;;;5051491;28;20029;-78
2022/06/26 12:09:52;;;;;;;0.60;0.40;;;27.80;65.20;;;;;;5055851;28;20029;-74
2022/06/26 12:12:18;;;;;;;0.90;0.40;;;28.10;63.30;;;;;;5036818;28;20053;-74
2022/06/26 12:14:52;;;;;;;1.13;0.40;;;28.00;62.40;;;;;;5042763;28;20482;-74
2022/06/26 12:17:23;;;;;;;0.70;0.40;;;27.80;62.40;;;;;;5053265;28;20030;-74
2022/06/26 12:19:49;;;;;;;0.70;0.50;;;27.90;60.90;;;;;;5042646;28;20041;-75
2022/06/26 12:22:33;;;;;;;0.60;0.40;;;27.80;59.60;;;;;;5038733;28;20044;-74
2022/06/26 12:25:00;;;;;;;0.80;0.50;;;28.10;60.90;;;;;;5052526;28;20049;-74
2022/06/26 12:27:37;;;;;;;1.45;0.70;;;28.40;60.00;;;;;;5035044;28;20037;-74
2022/06/26 12:30:15;;;;;;;1.15;0.60;;;28.80;59.20;;;;;;5038456;28;20033;-74
2022/06/26 12:32:42;;;;;;;0.35;0.30;;;28.40;59.40;;;;;;5033249;28;20056;-74
2022/06/26 12:35:08;;;;;;;0.60;0.50;;;27.70;59.90;;;;;;5043977;28;20398;-74
2022/06/26 12:37:35;;;;;;;2.20;0.35;;;27.30;61.40;;;;;;5047095;28;20052;-78
2022/06/26 12:40:01;;;;;;;0.40;0.35;;;27.30;62.40;;;;;;5036952;28;20048;-74
2022/06/26 12:42:27;;;;;;;1.27;0.50;;;27.30;61.40;;;;;;5033939;28;20427;-74
2022/06/26 12:44:54;;;;;;;0.60;0.40;;;27.50;61.70;;;;;;5037082;28;20033;-74
2022/06/26 12:47:20;;;;;;;1.23;0.38;;;27.80;60.50;;;;;;5034031;28;20056;-74
2022/06/26 12:49:46;;;;;;;2.40;0.47;;;27.70;60.60;;;;;;5034510;28;20041;-75
2022/06/26 12:52:12;;;;;;;1.48;0.40;;;27.70;61.70;;;;;;5041361;28;20040;-76
2022/06/26 12:54:38;;;;;;;2.45;0.50;;;27.90;62.70;;;;;;5060046;28;20493;-75
2022/06/26 12:57:05;;;;;;;0.65;0.40;;;27.70;60.40;;;;;;5046641;28;20045;-74
2022/06/26 12:59:31;;;;;;;4.57;0.47;;;27.50;58.90;;;;;;5042857;28;20037;-74
2022/06/26 13:01:58;;;;;;;0.40;0.35;;;27.40;61.60;;;;;;5033325;28;20121;-74
2022/06/26 13:04:24;;;;;;;0.68;0.40;;;27.80;59.40;;;;;;5048208;28;20051;-74
2022/06/26 13:06:50;;;;;;;0.70;0.45;;;28.00;59.50;;;;;;5034240;28;20034;-73
2022/06/26 13:09:16;;;;;;;0.35;0.30;;;27.90;59.70;;;;;;5052885;28;20029;-74
2022/06/26 13:11:43;;;;;;;1.42;0.40;;;28.00;61.40;;;;;;5036413;28;20029;-73
2022/06/26 13:14:10;;;;;;;2.55;0.50;;;28.40;58.20;;;;;;5035216;28;20054;-73